sensor_id;sensor_type;location;lat;lon;timestamp;pressure;altitude;pressure_sealevel;temperature;humidity
5053;BME280;2545;50.892;5.740;2023-08-07T00:00:10;56300.34;;;-142.21;100.00
5053;BME280;2545;50.892;5.740;2023-08-07T00:02:35;56323.88;;;-142.21;100.00
5053;BME280;2545;50.892;5.740;2023-08-07T00:05:01;56306.22;;;-142.21;100.00
5053;BME280;2545;50.892;5.740;2023-08-07T00:07:26;56243.47;;;-142.21;100.00
5053;BME280;2545;50.892;5.740;2023-08-07T00:09:52;56341.53;;;-142.21;100.00
5053;BME280;2545;50.892;5.740;2023-08-07T00:12:17;56308.19;;;-142.21;100.00
5053;BME280;2545;50.892;5.740;2023-08-07T00:14:42;56327.78;;;-142.21;100.00
5053;BME280;2545;50.892;5.740;2023-08-07T00:17:08;56304.25;;;-142.21;100.00
5053;BME280;2545;50.892;5.740;2023-08-07T00:19:33;56343.47;;;-142.21;100.00
5053;BME280;2545;50.892;5.740;2023-08-07T00:21:59;56298.38;;;-142.21;100.00
5053;BME280;2545;50.892;5.740;2023-08-07T00:24:24;56302.28;;;-142.21;100.00
5053;BME280;2545;50.892;5.740;2023-08-07T00:26:50;56335.63;;;-142.21;100.00
5053;BME280;2545;50.892;5.740;2023-08-07T00:29:15;56284.66;;;-142.21;100.00
5053;BME280;2545;50.892;5.740;2023-08-07T00:31:40;56272.88;;;-142.21;100.00
5053;BME280;2545;50.892;5.740;2023-08-07T00:34:06;56316.03;;;-142.21;100.00
5053;BME280;2545;50.892;5.740;2023-08-07T00:36:31;56304.25;;;-142.21;100.00
5053;BME280;2545;50.892;5.740;2023-08-07T00:39:00;56329.75;;;-142.21;100.00
5053;BME280;2545;50.892;5.740;2023-08-07T00:41:25;56290.53;;;-142.21;100.00
5053;BME280;2545;50.892;5.740;2023-08-07T00:43:50;56308.19;;;-142.21;100.00
5053;BME280;2545;50.892;5.740;2023-08-07T00:46:16;56310.13;;;-142.21;100.00
5053;BME280;2545;50.892;5.740;2023-08-07T00:48:41;56323.88;;;-142.21;100.00
5053;BME280;2545;50.892;5.740;2023-08-07T00:51:07;56317.97;;;-142.21;100.00
5053;BME280;2545;50.892;5.740;2023-08-07T00:53:37;56290.53;;;-142.21;100.00
5053;BME280;2545;50.892;5.740;2023-08-07T00:56:02;56312.09;;;-142.21;100.00
5053;BME280;2545;50.892;5.740;2023-08-07T00:58:28;56347.41;;;-142.21;100.00
5053;BME280;2545;50.892;5.740;2023-08-07T01:00:53;56286.63;;;-142.21;100.00
5053;BME280;2545;50.892;5.740;2023-08-07T01:03:18;56304.25;;;-142.21;100.00
5053;BME280;2545;50.892;5.740;2023-08-07T01:05:44;56286.63;;;-142.21;100.00
5053;BME280;2545;50.892;5.740;2023-08-07T01:08:10;56270.91;;;-142.21;100.00
5053;BME280;2545;50.892;5.740;2023-08-07T01:13:18;56308.19;;;-142.21;100.00
5053;BME280;2545;50.892;5.740;2023-08-07T01:15:49;56321.91;;;-142.21;100.00
5053;BME280;2545;50.892;5.740;2023-08-07T01:18:17;56317.97;;;-142.21;100.00
5053;BME280;2545;50.892;5.740;2023-08-07T01:20:43;56327.78;;;-142.21;100.00
5053;BME280;2545;50.892;5.740;2023-08-07T01:23:08;56308.19;;;-142.21;100.00
5053;BME280;2545;50.892;5.740;2023-08-07T01:25:35;56325.84;;;-142.21;100.00
5053;BME280;2545;50.892;5.740;2023-08-07T01:28:11;56329.75;;;-142.21;100.00
5053;BME280;2545;50.892;5.740;2023-08-07T01:30:42;56294.47;;;-142.21;100.00
5053;BME280;2545;50.892;5.740;2023-08-07T01:33:27;56308.19;;;-142.21;100.00
5053;BME280;2545;50.892;5.740;2023-08-07T01:35:58;56312.09;;;-142.21;100.00
5053;BME280;2545;50.892;5.740;2023-08-07T01:38:26;56290.53;;;-142.21;100.00
5053;BME280;2545;50.892;5.740;2023-08-07T01:40:52;56308.19;;;-142.21;100.00
5053;BME280;2545;50.892;5.740;2023-08-07T01:43:18;56302.28;;;-142.21;100.00
5053;BME280;2545;50.892;5.740;2023-08-07T01:45:44;56310.13;;;-142.21;100.00
5053;BME280;2545;50.892;5.740;2023-08-07T01:48:10;56321.91;;;-142.21;100.00
5053;BME280;2545;50.892;5.740;2023-08-07T01:50:38;56308.19;;;-142.21;100.00
5053;BME280;2545;50.892;5.740;2023-08-07T01:53:03;56321.91;;;-142.21;100.00
5053;BME280;2545;50.892;5.740;2023-08-07T01:55:29;56339.56;;;-142.21;100.00
5053;BME280;2545;50.892;5.740;2023-08-07T01:57:54;56308.19;;;-142.21;100.00
5053;BME280;2545;50.892;5.740;2023-08-07T02:00:20;56296.41;;;-142.21;100.00
5053;BME280;2545;50.892;5.740;2023-08-07T02:02:46;56363.09;;;-142.21;100.00
5053;BME280;2545;50.892;5.740;2023-08-07T02:05:12;56302.28;;;-142.21;100.00
5053;BME280;2545;50.892;5.740;2023-08-07T02:07:37;56319.94;;;-142.21;100.00
5053;BME280;2545;50.892;5.740;2023-08-07T02:10:03;56325.84;;;-142.21;100.00
5053;BME280;2545;50.892;5.740;2023-08-07T02:12:28;56312.09;;;-142.21;100.00
5053;BME280;2545;50.892;5.740;2023-08-07T02:14:57;56325.84;;;-142.21;100.00
5053;BME280;2545;50.892;5.740;2023-08-07T02:17:24;56314.06;;;-142.21;100.00
5053;BME280;2545;50.892;5.740;2023-08-07T02:19:50;56319.94;;;-142.21;100.00
5053;BME280;2545;50.892;5.740;2023-08-07T02:22:16;56319.94;;;-142.21;100.00
5053;BME280;2545;50.892;5.740;2023-08-07T02:24:41;56304.25;;;-142.21;100.00
5053;BME280;2545;50.892;5.740;2023-08-07T02:27:07;56312.09;;;-142.21;100.00
5053;BME280;2545;50.892;5.740;2023-08-07T02:29:32;56308.19;;;-142.21;100.00
5053;BME280;2545;50.892;5.740;2023-08-07T02:32:00;56314.06;;;-142.21;100.00
5053;BME280;2545;50.892;5.740;2023-08-07T02:34:25;56345.44;;;-142.21;100.00
5053;BME280;2545;50.892;5.740;2023-08-07T02:36:50;56321.91;;;-142.21;100.00
5053;BME280;2545;50.892;5.740;2023-08-07T02:39:16;56321.91;;;-142.21;100.00
5053;BME280;2545;50.892;5.740;2023-08-07T02:41:41;56331.72;;;-142.21;100.00
5053;BME280;2545;50.892;5.740;2023-08-07T02:44:07;56335.63;;;-142.21;100.00
5053;BME280;2545;50.892;5.740;2023-08-07T02:46:32;56300.34;;;-142.21;100.00
5053;BME280;2545;50.892;5.740;2023-08-07T02:48:59;56312.09;;;-142.21;100.00
5053;BME280;2545;50.892;5.740;2023-08-07T02:51:25;56325.84;;;-142.21;100.00
5053;BME280;2545;50.892;5.740;2023-08-07T02:53:50;56280.72;;;-142.21;100.00
5053;BME280;2545;50.892;5.740;2023-08-07T02:56:15;56349.38;;;-142.21;100.00
5053;BME280;2545;50.892;5.740;2023-08-07T02:58:41;56337.59;;;-142.21;100.00
5053;BME280;2545;50.892;5.740;2023-08-07T03:01:07;56357.22;;;-142.21;100.00
5053;BME280;2545;50.892;5.740;2023-08-07T03:03:33;56339.56;;;-142.21;100.00
5053;BME280;2545;50.892;5.740;2023-08-07T03:05:58;56310.13;;;-142.21;100.00
5053;BME280;2545;50.892;5.740;2023-08-07T03:08:24;56339.56;;;-142.21;100.00
5053;BME280;2545;50.892;5.740;2023-08-07T03:10:53;56316.03;;;-142.21;100.00
5053;BME280;2545;50.892;5.740;2023-08-07T03:13:19;56343.47;;;-142.21;100.00
5053;BME280;2545;50.892;5.740;2023-08-07T03:15:44;56341.53;;;-142.21;100.00
5053;BME280;2545;50.892;5.740;2023-08-07T03:18:10;56331.72;;;-142.21;100.00
5053;BME280;2545;50.892;5.740;2023-08-07T03:20:38;56310.13;;;-142.21;100.00
5053;BME280;2545;50.892;5.740;2023-08-07T03:23:03;56314.06;;;-142.21;100.00
5053;BME280;2545;50.892;5.740;2023-08-07T03:25:29;56335.63;;;-142.21;100.00
5053;BME280;2545;50.892;5.740;2023-08-07T03:27:54;56306.22;;;-142.21;100.00
5053;BME280;2545;50.892;5.740;2023-08-07T03:30:19;56314.06;;;-142.21;100.00
5053;BME280;2545;50.892;5.740;2023-08-07T03:32:44;56314.06;;;-142.21;100.00
5053;BME280;2545;50.892;5.740;2023-08-07T03:35:10;56343.47;;;-142.21;100.00
5053;BME280;2545;50.892;5.740;2023-08-07T03:37:36;56327.78;;;-142.21;100.00
5053;BME280;2545;50.892;5.740;2023-08-07T03:40:01;56310.13;;;-142.21;100.00
5053;BME280;2545;50.892;5.740;2023-08-07T03:42:27;56357.22;;;-142.21;100.00
5053;BME280;2545;50.892;5.740;2023-08-07T03:44:52;56325.84;;;-142.21;100.00
5053;BME280;2545;50.892;5.740;2023-08-07T03:47:17;56343.47;;;-142.21;100.00
5053;BME280;2545;50.892;5.740;2023-08-07T03:49:43;56310.13;;;-142.21;100.00
5053;BME280;2545;50.892;5.740;2023-08-07T03:52:08;56312.09;;;-142.21;100.00
5053;BME280;2545;50.892;5.740;2023-08-07T03:54:33;56341.53;;;-142.21;100.00
5053;BME280;2545;50.892;5.740;2023-08-07T03:56:59;56306.22;;;-142.21;100.00
5053;BME280;2545;50.892;5.740;2023-08-07T03:59:24;56329.75;;;-142.21;100.00
5053;BME280;2545;50.892;5.740;2023-08-07T04:01:49;56376.81;;;-142.21;100.00
5053;BME280;2545;50.892;5.740;2023-08-07T04:04:15;56351.31;;;-142.21;100.00
5053;BME280;2545;50.892;5.740;2023-08-07T04:06:40;56319.94;;;-142.21;100.00
5053;BME280;2545;50.892;5.740;2023-08-07T04:09:05;56339.56;;;-142.21;100.00
5053;BME280;2545;50.892;5.740;2023-08-07T04:11:31;56314.06;;;-142.21;100.00
5053;BME280;2545;50.892;5.740;2023-08-07T04:13:58;56319.94;;;-142.21;100.00
5053;BME280;2545;50.892;5.740;2023-08-07T04:16:23;56296.41;;;-142.21;100.00
5053;BME280;2545;50.892;5.740;2023-08-07T04:18:50;56359.16;;;-142.21;100.00
5053;BME280;2545;50.892;5.740;2023-08-07T04:21:16;56319.94;;;-142.21;100.00
5053;BME280;2545;50.892;5.740;2023-08-07T04:23:41;56296.41;;;-142.21;100.00
5053;BME280;2545;50.892;5.740;2023-08-07T04:26:06;56314.06;;;-142.21;100.00
5053;BME280;2545;50.892;5.740;2023-08-07T04:28:32;56343.47;;;-142.21;100.00
5053;BME280;2545;50.892;5.740;2023-08-07T04:30:57;56335.63;;;-142.21;100.00
5053;BME280;2545;50.892;5.740;2023-08-07T04:33:22;56302.28;;;-142.21;100.00
5053;BME280;2545;50.892;5.740;2023-08-07T04:35:48;56357.22;;;-142.21;100.00
5053;BME280;2545;50.892;5.740;2023-08-07T04:38:14;56319.94;;;-142.21;100.00
5053;BME280;2545;50.892;5.740;2023-08-07T04:40:47;56298.38;;;-142.21;100.00
5053;BME280;2545;50.892;5.740;2023-08-07T04:43:14;56284.66;;;-142.21;100.00
5053;BME280;2545;50.892;5.740;2023-08-07T04:45:40;56323.88;;;-142.21;100.00
5053;BME280;2545;50.892;5.740;2023-08-07T04:48:09;56284.66;;;-142.21;100.00
5053;BME280;2545;50.892;5.740;2023-08-07T04:50:34;56335.63;;;-142.21;100.00
5053;BME280;2545;50.892;5.740;2023-08-07T04:53:00;56345.44;;;-142.21;100.00
5053;BME280;2545;50.892;5.740;2023-08-07T04:55:25;56325.84;;;-142.21;100.00
5053;BME280;2545;50.892;5.740;2023-08-07T04:57:51;56306.22;;;-142.21;100.00
5053;BME280;2545;50.892;5.740;2023-08-07T05:00:19;56308.19;;;-142.21;100.00
5053;BME280;2545;50.892;5.740;2023-08-07T05:02:45;56341.53;;;-142.21;100.00
5053;BME280;2545;50.892;5.740;2023-08-07T05:05:10;56363.09;;;-142.21;100.00
5053;BME280;2545;50.892;5.740;2023-08-07T05:07:36;56312.09;;;-142.21;100.00
5053;BME280;2545;50.892;5.740;2023-08-07T05:10:02;56298.38;;;-142.21;100.00
5053;BME280;2545;50.892;5.740;2023-08-07T05:12:28;56312.09;;;-142.21;100.00
5053;BME280;2545;50.892;5.740;2023-08-07T05:14:54;56353.28;;;-142.21;100.00
5053;BME280;2545;50.892;5.740;2023-08-07T05:17:19;56347.41;;;-142.21;100.00
5053;BME280;2545;50.892;5.740;2023-08-07T05:19:45;56329.75;;;-142.21;100.00
5053;BME280;2545;50.892;5.740;2023-08-07T05:22:10;56298.38;;;-142.21;100.00
5053;BME280;2545;50.892;5.740;2023-08-07T05:24:35;56302.28;;;-142.21;100.00
5053;BME280;2545;50.892;5.740;2023-08-07T05:27:05;56319.94;;;-142.21;100.00
5053;BME280;2545;50.892;5.740;2023-08-07T05:29:33;56329.75;;;-142.21;100.00
5053;BME280;2545;50.892;5.740;2023-08-07T05:31:59;56323.88;;;-142.21;100.00
5053;BME280;2545;50.892;5.740;2023-08-07T05:34:24;56337.59;;;-142.21;100.00
5053;BME280;2545;50.892;5.740;2023-08-07T05:36:49;56331.72;;;-142.21;100.00
5053;BME280;2545;50.892;5.740;2023-08-07T05:39:15;56276.81;;;-142.21;100.00
5053;BME280;2545;50.892;5.740;2023-08-07T05:41:40;56325.84;;;-142.21;100.00
5053;BME280;2545;50.892;5.740;2023-08-07T05:44:05;56333.69;;;-142.21;100.00
5053;BME280;2545;50.892;5.740;2023-08-07T05:46:31;56321.91;;;-142.21;100.00
5053;BME280;2545;50.892;5.740;2023-08-07T05:48:56;56312.09;;;-142.21;100.00
5053;BME280;2545;50.892;5.740;2023-08-07T05:51:21;56286.63;;;-142.21;100.00
5053;BME280;2545;50.892;5.740;2023-08-07T05:53:47;56351.31;;;-142.21;100.00
5053;BME280;2545;50.892;5.740;2023-08-07T05:56:12;56337.59;;;-142.21;100.00
5053;BME280;2545;50.892;5.740;2023-08-07T05:58:37;56312.09;;;-142.21;100.00
5053;BME280;2545;50.892;5.740;2023-08-07T06:01:03;56333.69;;;-142.21;100.00
5053;BME280;2545;50.892;5.740;2023-08-07T06:03:28;56333.69;;;-142.21;100.00
5053;BME280;2545;50.892;5.740;2023-08-07T06:05:53;56290.53;;;-142.21;100.00
5053;BME280;2545;50.892;5.740;2023-08-07T06:08:19;56286.63;;;-142.21;100.00
5053;BME280;2545;50.892;5.740;2023-08-07T06:10:44;56296.41;;;-142.21;99.55
5053;BME280;2545;50.892;5.740;2023-08-07T06:13:10;56327.78;;;-142.21;98.82
5053;BME280;2545;50.892;5.740;2023-08-07T06:15:35;56323.88;;;-142.21;99.01
5053;BME280;2545;50.892;5.740;2023-08-07T06:18:00;56312.09;;;-142.21;98.80
5053;BME280;2545;50.892;5.740;2023-08-07T06:20:26;56321.91;;;-142.21;98.40
5053;BME280;2545;50.892;5.740;2023-08-07T06:22:51;56329.75;;;-142.21;98.91
5053;BME280;2545;50.892;5.740;2023-08-07T06:25:17;56316.03;;;-142.21;98.87
5053;BME280;2545;50.892;5.740;2023-08-07T06:27:44;56302.28;;;-142.21;97.62
5053;BME280;2545;50.892;5.740;2023-08-07T06:30:10;56286.63;;;-142.21;96.62
5053;BME280;2545;50.892;5.740;2023-08-07T06:32:36;56321.91;;;-142.21;96.45
5053;BME280;2545;50.892;5.740;2023-08-07T06:35:03;56294.47;;;-142.21;96.01
5053;BME280;2545;50.892;5.740;2023-08-07T06:37:28;56308.19;;;-142.21;95.85
5053;BME280;2545;50.892;5.740;2023-08-07T06:39:53;56347.41;;;-142.21;95.01
5053;BME280;2545;50.892;5.740;2023-08-07T06:42:19;56304.25;;;-142.21;95.01
5053;BME280;2545;50.892;5.740;2023-08-07T06:44:44;56312.09;;;-142.21;93.53
5053;BME280;2545;50.892;5.740;2023-08-07T06:47:10;56308.19;;;-142.21;94.30
5053;BME280;2545;50.892;5.740;2023-08-07T06:49:35;56296.41;;;-142.21;94.54
5053;BME280;2545;50.892;5.740;2023-08-07T06:52:01;56314.06;;;-142.21;92.31
5053;BME280;2545;50.892;5.740;2023-08-07T06:54:27;56280.72;;;-142.21;93.04
5053;BME280;2545;50.892;5.740;2023-08-07T06:56:52;56310.13;;;-142.21;92.24
5053;BME280;2545;50.892;5.740;2023-08-07T06:59:17;56294.47;;;-142.21;90.49
5053;BME280;2545;50.892;5.740;2023-08-07T07:01:43;56331.72;;;-142.21;90.49
5053;BME280;2545;50.892;5.740;2023-08-07T07:04:08;56327.78;;;-142.21;88.78
5053;BME280;2545;50.892;5.740;2023-08-07T07:06:34;56276.81;;;-142.21;88.80
5053;BME280;2545;50.892;5.740;2023-08-07T07:08:59;56294.47;;;-142.21;89.60
5053;BME280;2545;50.892;5.740;2023-08-07T07:11:25;56316.03;;;-142.21;89.60
5053;BME280;2545;50.892;5.740;2023-08-07T07:13:51;56312.09;;;-142.21;88.61
5053;BME280;2545;50.892;5.740;2023-08-07T07:16:20;56317.97;;;-142.21;88.91
5053;BME280;2545;50.892;5.740;2023-08-07T07:18:52;56316.03;;;-142.21;88.74
5053;BME280;2545;50.892;5.740;2023-08-07T07:21:17;56302.28;;;-142.21;88.38
5053;BME280;2545;50.892;5.740;2023-08-07T07:23:43;56304.25;;;-142.21;87.35
5053;BME280;2545;50.892;5.740;2023-08-07T07:26:08;56292.50;;;-142.21;87.00
5053;BME280;2545;50.892;5.740;2023-08-07T07:28:34;56335.63;;;-142.21;86.05
5053;BME280;2545;50.892;5.740;2023-08-07T07:30:59;56302.28;;;-142.21;84.92
5053;BME280;2545;50.892;5.740;2023-08-07T07:33:25;56327.78;;;-142.21;84.65
5053;BME280;2545;50.892;5.740;2023-08-07T07:35:50;56239.56;;;-142.21;83.25
5053;BME280;2545;50.892;5.740;2023-08-07T07:38:16;56300.34;;;-142.21;83.05
5053;BME280;2545;50.892;5.740;2023-08-07T07:40:41;56300.34;;;-142.21;82.73
5053;BME280;2545;50.892;5.740;2023-08-07T07:43:07;56280.72;;;-142.21;81.65
5053;BME280;2545;50.892;5.740;2023-08-07T07:45:32;56241.50;;;-142.21;79.88
5053;BME280;2545;50.892;5.740;2023-08-07T07:48:01;56280.72;;;-142.21;79.43
5053;BME280;2545;50.892;5.740;2023-08-07T07:50:26;56302.28;;;-142.21;77.15
5053;BME280;2545;50.892;5.740;2023-08-07T07:52:51;56282.69;;;-142.21;77.67
5053;BME280;2545;50.892;5.740;2023-08-07T07:55:17;56261.13;;;-142.21;77.19
5053;BME280;2545;50.892;5.740;2023-08-07T07:57:42;56296.41;;;-142.21;76.51
5053;BME280;2545;50.892;5.740;2023-08-07T08:00:08;56308.19;;;-142.21;74.77
5053;BME280;2545;50.892;5.740;2023-08-07T08:02:36;56300.34;;;-142.21;75.38
5053;BME280;2545;50.892;5.740;2023-08-07T08:05:01;56280.72;;;-142.21;74.76
5053;BME280;2545;50.892;5.740;2023-08-07T08:07:27;56268.97;;;-142.21;74.08
5053;BME280;2545;50.892;5.740;2023-08-07T08:09:52;56267.00;;;-142.21;75.06
5053;BME280;2545;50.892;5.740;2023-08-07T08:12:18;56268.97;;;-142.21;74.23
5053;BME280;2545;50.892;5.740;2023-08-07T08:14:43;56300.34;;;-142.21;75.22
5053;BME280;2545;50.892;5.740;2023-08-07T08:17:08;56284.66;;;-142.21;75.32
5053;BME280;2545;50.892;5.740;2023-08-07T08:19:34;56280.72;;;-142.21;74.43
5053;BME280;2545;50.892;5.740;2023-08-07T08:22:00;56265.03;;;-142.21;73.04
5053;BME280;2545;50.892;5.740;2023-08-07T08:24:25;56298.38;;;-142.21;71.79
5053;BME280;2545;50.892;5.740;2023-08-07T08:26:50;56284.66;;;-142.21;70.30
5053;BME280;2545;50.892;5.740;2023-08-07T08:29:16;56272.88;;;-142.21;69.84
5053;BME280;2545;50.892;5.740;2023-08-07T08:31:41;56263.06;;;-142.21;70.98
5053;BME280;2545;50.892;5.740;2023-08-07T08:34:06;56276.81;;;-142.21;71.71
5053;BME280;2545;50.892;5.740;2023-08-07T08:36:32;56288.56;;;-142.21;71.23
5053;BME280;2545;50.892;5.740;2023-08-07T08:38:57;56217.97;;;-142.21;71.05
5053;BME280;2545;50.892;5.740;2023-08-07T08:41:23;56310.13;;;-142.21;71.28
5053;BME280;2545;50.892;5.740;2023-08-07T08:43:51;56268.97;;;-142.21;70.04
5053;BME280;2545;50.892;5.740;2023-08-07T08:46:20;56280.72;;;-142.21;69.33
5053;BME280;2545;50.892;5.740;2023-08-07T08:48:52;56237.59;;;-142.21;69.06
5053;BME280;2545;50.892;5.740;2023-08-07T08:51:21;56233.66;;;-142.21;68.31
5053;BME280;2545;50.892;5.740;2023-08-07T08:53:47;56253.28;;;-142.21;69.86
5053;BME280;2545;50.892;5.740;2023-08-07T08:56:15;56237.59;;;-142.21;70.98
5053;BME280;2545;50.892;5.740;2023-08-07T08:58:40;56265.03;;;-142.21;70.97
5053;BME280;2545;50.892;5.740;2023-08-07T09:01:06;56290.53;;;-142.21;68.97
5053;BME280;2545;50.892;5.740;2023-08-07T09:03:32;56251.31;;;-142.21;66.73
5053;BME280;2545;50.892;5.740;2023-08-07T09:05:58;56249.34;;;-142.21;63.27
5053;BME280;2545;50.892;5.740;2023-08-07T09:08:27;56270.91;;;-142.21;63.08
5053;BME280;2545;50.892;5.740;2023-08-07T09:10:55;56231.72;;;-142.21;61.48
5053;BME280;2545;50.892;5.740;2023-08-07T09:13:23;56249.34;;;-142.21;61.83
5053;BME280;2545;50.892;5.740;2023-08-07T09:15:50;56284.66;;;-142.21;62.99
5053;BME280;2545;50.892;5.740;2023-08-07T09:18:17;56235.63;;;-142.21;63.99
5053;BME280;2545;50.892;5.740;2023-08-07T09:20:43;56265.03;;;-142.21;64.49
5053;BME280;2545;50.892;5.740;2023-08-07T09:23:08;56265.03;;;-142.21;65.07
5053;BME280;2545;50.892;5.740;2023-08-07T09:25:34;56257.19;;;-142.21;63.68
5053;BME280;2545;50.892;5.740;2023-08-07T09:28:06;56276.81;;;-142.21;63.00
5053;BME280;2545;50.892;5.740;2023-08-07T09:30:34;56251.31;;;-142.21;61.60
5053;BME280;2545;50.892;5.740;2023-08-07T09:33:00;56259.16;;;-142.21;60.06
5053;BME280;2545;50.892;5.740;2023-08-07T09:35:26;56237.59;;;-142.21;60.11
5053;BME280;2545;50.892;5.740;2023-08-07T09:37:52;56249.34;;;-142.21;59.66
5053;BME280;2545;50.892;5.740;2023-08-07T09:40:18;56214.06;;;-142.21;58.59
5053;BME280;2545;50.892;5.740;2023-08-07T09:42:43;56225.81;;;-142.21;58.34
5053;BME280;2545;50.892;5.740;2023-08-07T09:45:25;56257.19;;;-142.21;58.57
5053;BME280;2545;50.892;5.740;2023-08-07T09:50:23;56237.59;;;-142.21;60.36
5053;BME280;2545;50.892;5.740;2023-08-07T09:52:49;56257.19;;;-142.21;61.11
5053;BME280;2545;50.892;5.740;2023-08-07T09:55:14;56217.97;;;-142.21;61.49
5053;BME280;2545;50.892;5.740;2023-08-07T09:57:43;56245.44;;;-142.21;61.14
5053;BME280;2545;50.892;5.740;2023-08-07T10:00:09;56245.44;;;-142.21;60.53
5053;BME280;2545;50.892;5.740;2023-08-07T10:02:40;56217.97;;;-142.21;60.04
5053;BME280;2545;50.892;5.740;2023-08-07T10:05:06;56241.50;;;-142.21;59.65
5053;BME280;2545;50.892;5.740;2023-08-07T10:07:34;56249.34;;;-142.21;61.68
5053;BME280;2545;50.892;5.740;2023-08-07T10:09:59;56219.94;;;-142.21;61.00
5053;BME280;2545;50.892;5.740;2023-08-07T10:12:26;56227.78;;;-142.21;58.62
5053;BME280;2545;50.892;5.740;2023-08-07T10:14:53;56257.19;;;-142.21;55.97
5053;BME280;2545;50.892;5.740;2023-08-07T10:17:21;56265.03;;;-142.21;55.97
5053;BME280;2545;50.892;5.740;2023-08-07T10:19:47;56178.75;;;-142.21;55.47
5053;BME280;2545;50.892;5.740;2023-08-07T10:22:13;56255.22;;;-142.21;58.05
5053;BME280;2545;50.892;5.740;2023-08-07T10:24:42;56241.50;;;-142.21;58.71
5053;BME280;2545;50.892;5.740;2023-08-07T10:27:10;56233.66;;;-142.21;60.79
5053;BME280;2545;50.892;5.740;2023-08-07T10:29:36;56225.81;;;-142.21;59.04
5053;BME280;2545;50.892;5.740;2023-08-07T10:32:04;56227.78;;;-142.21;57.25
5053;BME280;2545;50.892;5.740;2023-08-07T10:34:33;56235.63;;;-142.21;54.81
5053;BME280;2545;50.892;5.740;2023-08-07T10:36:59;56210.13;;;-142.21;51.27
5053;BME280;2545;50.892;5.740;2023-08-07T10:39:24;56178.75;;;-142.21;49.95
5053;BME280;2545;50.892;5.740;2023-08-07T10:41:53;56219.94;;;-142.21;50.47
5053;BME280;2545;50.892;5.740;2023-08-07T10:44:26;56214.06;;;-142.21;52.94
5053;BME280;2545;50.892;5.740;2023-08-07T10:46:57;56202.28;;;-142.21;52.62
5053;BME280;2545;50.892;5.740;2023-08-07T10:51:58;56219.94;;;-142.21;49.17
5053;BME280;2545;50.892;5.740;2023-08-07T10:54:24;56212.09;;;-142.21;49.90
5053;BME280;2545;50.892;5.740;2023-08-07T10:56:54;56206.22;;;-142.21;51.62
5053;BME280;2545;50.892;5.740;2023-08-07T10:59:20;56229.75;;;-142.21;52.97
5053;BME280;2545;50.892;5.740;2023-08-07T11:01:51;56217.97;;;-142.21;51.29
5053;BME280;2545;50.892;5.740;2023-08-07T11:04:16;56198.38;;;-142.21;49.77
5053;BME280;2545;50.892;5.740;2023-08-07T11:06:48;56163.06;;;-142.21;45.78
5053;BME280;2545;50.892;5.740;2023-08-07T11:09:13;56170.91;;;-142.21;45.17
5053;BME280;2545;50.892;5.740;2023-08-07T11:11:43;56167.00;;;-142.21;44.16
5053;BME280;2545;50.892;5.740;2023-08-07T11:14:10;56186.59;;;-142.21;44.85
5053;BME280;2545;50.892;5.740;2023-08-07T11:16:36;56206.22;;;-142.21;47.57
5053;BME280;2545;50.892;5.740;2023-08-07T11:19:03;56239.56;;;-142.21;47.89
5053;BME280;2545;50.892;5.740;2023-08-07T11:21:29;56216.00;;;-142.21;50.96
5053;BME280;2545;50.892;5.740;2023-08-07T11:23:55;56243.47;;;-142.21;53.37
5053;BME280;2545;50.892;5.740;2023-08-07T11:26:21;56186.59;;;-142.21;53.36
5053;BME280;2545;50.892;5.740;2023-08-07T11:28:47;56202.28;;;-142.21;52.51
5053;BME280;2545;50.892;5.740;2023-08-07T11:31:13;56196.41;;;-142.21;47.09
5053;BME280;2545;50.892;5.740;2023-08-07T11:33:39;56217.97;;;-142.21;46.12
5053;BME280;2545;50.892;5.740;2023-08-07T11:36:14;56182.69;;;-142.21;43.46
5053;BME280;2545;50.892;5.740;2023-08-07T11:38:42;56157.19;;;-142.21;40.51
5053;BME280;2545;50.892;5.740;2023-08-07T11:41:12;56151.31;;;-142.21;38.88
5053;BME280;2545;50.892;5.740;2023-08-07T11:43:38;56135.63;;;-142.21;40.28
5053;BME280;2545;50.892;5.740;2023-08-07T11:46:05;56147.38;;;-142.21;40.69
5053;BME280;2545;50.892;5.740;2023-08-07T11:48:33;56192.50;;;-142.21;41.75
5053;BME280;2545;50.892;5.740;2023-08-07T11:50:59;56182.69;;;-142.21;42.22
5053;BME280;2545;50.892;5.740;2023-08-07T11:53:27;56200.34;;;-142.21;43.07
5053;BME280;2545;50.892;5.740;2023-08-07T11:56:00;56159.16;;;-142.21;41.01
5053;BME280;2545;50.892;5.740;2023-08-07T11:58:28;56116.00;;;-142.21;38.99
5053;BME280;2545;50.892;5.740;2023-08-07T12:00:58;56149.34;;;-142.21;41.22
5053;BME280;2545;50.892;5.740;2023-08-07T12:03:28;56155.22;;;-142.21;41.65
5053;BME280;2545;50.892;5.740;2023-08-07T12:05:58;56210.13;;;-142.21;42.75
5053;BME280;2545;50.892;5.740;2023-08-07T12:08:24;56165.03;;;-142.21;42.70
5053;BME280;2545;50.892;5.740;2023-08-07T12:10:51;56143.47;;;-142.21;43.09
5053;BME280;2545;50.892;5.740;2023-08-07T12:13:24;56153.28;;;-142.21;42.56
5053;BME280;2545;50.892;5.740;2023-08-07T12:15:51;56168.97;;;-142.21;41.39
5053;BME280;2545;50.892;5.740;2023-08-07T12:18:18;56121.91;;;-142.21;38.97
5053;BME280;2545;50.892;5.740;2023-08-07T12:20:44;56123.84;;;-142.21;38.19
5053;BME280;2545;50.892;5.740;2023-08-07T12:23:20;56108.16;;;-142.21;37.21
5053;BME280;2545;50.892;5.740;2023-08-07T12:25:46;56100.31;;;-142.21;36.87
5053;BME280;2545;50.892;5.740;2023-08-07T12:28:12;56129.75;;;-142.21;37.81
5053;BME280;2545;50.892;5.740;2023-08-07T12:30:38;56135.63;;;-142.21;39.05
5053;BME280;2545;50.892;5.740;2023-08-07T12:33:04;56157.19;;;-142.21;39.94
5053;BME280;2545;50.892;5.740;2023-08-07T12:35:31;56163.06;;;-142.21;40.67
5053;BME280;2545;50.892;5.740;2023-08-07T12:37:57;56163.06;;;-142.21;41.95
5053;BME280;2545;50.892;5.740;2023-08-07T12:40:22;56170.91;;;-142.21;42.95
5053;BME280;2545;50.892;5.740;2023-08-07T12:42:49;56174.84;;;-142.21;42.34
5053;BME280;2545;50.892;5.740;2023-08-07T12:45:14;56167.00;;;-142.21;41.37
5053;BME280;2545;50.892;5.740;2023-08-07T12:47:41;56143.47;;;-142.21;40.90
5053;BME280;2545;50.892;5.740;2023-08-07T12:50:07;56155.22;;;-142.21;39.58
5053;BME280;2545;50.892;5.740;2023-08-07T12:52:33;56121.91;;;-142.21;38.39
5053;BME280;2545;50.892;5.740;2023-08-07T12:54:59;56151.31;;;-142.21;38.04
5053;BME280;2545;50.892;5.740;2023-08-07T12:57:25;56145.44;;;-142.21;38.25